sensor_id;sensor_type;location;lat;lon;timestamp;pressure;altitude;pressure_sealevel;temperature;humidity
64844;BME280;51310;52.198;5.422;2022-07-12T00:02:18;102217.19;;;15.30;100.00
64844;BME280;51310;52.198;5.422;2022-07-12T00:04:44;102215.03;;;15.26;100.00
64844;BME280;51310;52.198;5.422;2022-07-12T00:07:10;102212.91;;;15.30;100.00
64844;BME280;51310;52.198;5.422;2022-07-12T00:09:36;102206.81;;;15.30;100.00
64844;BME280;51310;52.198;5.422;2022-07-12T00:12:02;102213.69;;;15.29;100.00
64844;BME280;51310;52.198;5.422;2022-07-12T00:14:28;102216.84;;;15.27;100.00
64844;BME280;51310;52.198;5.422;2022-07-12T00:16:54;102221.91;;;15.25;100.00
64844;BME280;51310;52.198;5.422;2022-07-12T00:19:19;102219.31;;;15.25;100.00
64844;BME280;51310;52.198;5.422;2022-07-12T00:21:45;102221.59;;;15.22;100.00
64844;BME280;51310;52.198;5.422;2022-07-12T00:24:11;102221.75;;;15.15;100.00
64844;BME280;51310;52.198;5.422;2022-07-12T00:26:37;102224.50;;;15.16;100.00
64844;BME280;51310;52.198;5.422;2022-07-12T00:29:03;102224.78;;;15.11;100.00
64844;BME280;51310;52.198;5.422;2022-07-12T00:31:29;102227.66;;;15.05;100.00
64844;BME280;51310;52.198;5.422;2022-07-12T00:33:55;102223.41;;;15.06;100.00
64844;BME280;51310;52.198;5.422;2022-07-12T00:36:20;102225.69;;;15.03;100.00
64844;BME280;51310;52.198;5.422;2022-07-12T00:38:46;102226.03;;;15.06;100.00
64844;BME280;51310;52.198;5.422;2022-07-12T00:41:12;102215.31;;;15.03;100.00
64844;BME280;51310;52.198;5.422;2022-07-12T00:43:38;102218.69;;;15.02;100.00
64844;BME280;51310;52.198;5.422;2022-07-12T00:46:04;102222.78;;;14.91;100.00
64844;BME280;51310;52.198;5.422;2022-07-12T00:48:34;102221.88;;;14.90;100.00
64844;BME280;51310;52.198;5.422;2022-07-12T00:51:01;102218.31;;;14.81;100.00
64844;BME280;51310;52.198;5.422;2022-07-12T00:53:27;102222.16;;;14.85;100.00
64844;BME280;51310;52.198;5.422;2022-07-12T00:55:57;102221.88;;;14.82;100.00
64844;BME280;51310;52.198;5.422;2022-07-12T00:58:25;102232.81;;;14.79;100.00
64844;BME280;51310;52.198;5.422;2022-07-12T01:00:52;102229.13;;;14.68;100.00
64844;BME280;51310;52.198;5.422;2022-07-12T01:03:21;102239.63;;;14.61;100.00
64844;BME280;51310;52.198;5.422;2022-07-12T01:05:46;102245.41;;;14.59;100.00
64844;BME280;51310;52.198;5.422;2022-07-12T01:08:14;102242.03;;;14.60;100.00
64844;BME280;51310;52.198;5.422;2022-07-12T01:10:42;102248.00;;;14.59;100.00
64844;BME280;51310;52.198;5.422;2022-07-12T01:13:09;102252.28;;;14.58;100.00
64844;BME280;51310;52.198;5.422;2022-07-12T01:15:36;102249.00;;;14.52;100.00
64844;BME280;51310;52.198;5.422;2022-07-12T01:18:03;102252.09;;;14.56;100.00
64844;BME280;51310;52.198;5.422;2022-07-12T01:20:30;102252.69;;;14.54;100.00
64844;BME280;51310;52.198;5.422;2022-07-12T01:22:57;102255.72;;;14.50;100.00
64844;BME280;51310;52.198;5.422;2022-07-12T01:25:24;102256.31;;;14.47;100.00
64844;BME280;51310;52.198;5.422;2022-07-12T01:27:51;102259.59;;;14.38;100.00
64844;BME280;51310;52.198;5.422;2022-07-12T01:30:18;102264.00;;;14.30;100.00
64844;BME280;51310;52.198;5.422;2022-07-12T01:32:44;102260.38;;;14.36;100.00
64844;BME280;51310;52.198;5.422;2022-07-12T01:35:10;102253.75;;;14.23;100.00
64844;BME280;51310;52.198;5.422;2022-07-12T01:37:40;102253.00;;;14.24;100.00
64844;BME280;51310;52.198;5.422;2022-07-12T01:40:13;102258.59;;;14.20;100.00
64844;BME280;51310;52.198;5.422;2022-07-12T01:42:41;102260.72;;;14.15;100.00
64844;BME280;51310;52.198;5.422;2022-07-12T01:45:09;102253.03;;;14.08;100.00
64844;BME280;51310;52.198;5.422;2022-07-12T01:47:36;102255.16;;;14.03;100.00
64844;BME280;51310;52.198;5.422;2022-07-12T01:50:11;102248.75;;;14.00;100.00
64844;BME280;51310;52.198;5.422;2022-07-12T01:52:39;102251.34;;;14.00;100.00
64844;BME280;51310;52.198;5.422;2022-07-12T01:55:07;102245.09;;;13.98;100.00
64844;BME280;51310;52.198;5.422;2022-07-12T01:57:34;102242.94;;;13.93;100.00
64844;BME280;51310;52.198;5.422;2022-07-12T02:00:03;102241.41;;;13.95;100.00
64844;BME280;51310;52.198;5.422;2022-07-12T02:02:32;102245.34;;;13.92;100.00
64844;BME280;51310;52.198;5.422;2022-07-12T02:05:00;102240.34;;;13.93;100.00
64844;BME280;51310;52.198;5.422;2022-07-12T02:07:26;102229.81;;;13.92;100.00
64844;BME280;51310;52.198;5.422;2022-07-12T02:09:53;102234.22;;;13.93;100.00
64844;BME280;51310;52.198;5.422;2022-07-12T02:12:19;102228.31;;;13.94;100.00
64844;BME280;51310;52.198;5.422;2022-07-12T02:14:45;102234.72;;;13.98;100.00
64844;BME280;51310;52.198;5.422;2022-07-12T02:17:11;102231.97;;;13.96;100.00
64844;BME280;51310;52.198;5.422;2022-07-12T02:19:37;102228.13;;;13.92;100.00
64844;BME280;51310;52.198;5.422;2022-07-12T02:22:03;102223.13;;;13.94;100.00
64844;BME280;51310;52.198;5.422;2022-07-12T02:24:29;102233.47;;;13.94;100.00
64844;BME280;51310;52.198;5.422;2022-07-12T02:26:55;102235.00;;;13.92;100.00
64844;BME280;51310;52.198;5.422;2022-07-12T02:29:21;102225.84;;;13.87;100.00
64844;BME280;51310;52.198;5.422;2022-07-12T02:31:46;102228.00;;;13.91;100.00
64844;BME280;51310;52.198;5.422;2022-07-12T02:34:12;102230.41;;;13.89;100.00
64844;BME280;51310;52.198;5.422;2022-07-12T02:36:38;102228.69;;;13.81;100.00
64844;BME280;51310;52.198;5.422;2022-07-12T02:39:04;102226.34;;;13.75;100.00
64844;BME280;51310;52.198;5.422;2022-07-12T02:41:31;102219.78;;;13.70;100.00
64844;BME280;51310;52.198;5.422;2022-07-12T02:43:57;102222.38;;;13.70;100.00
64844;BME280;51310;52.198;5.422;2022-07-12T02:46:23;102226.03;;;13.72;100.00
64844;BME280;51310;52.198;5.422;2022-07-12T02:48:49;102224.22;;;13.71;100.00
64844;BME280;51310;52.198;5.422;2022-07-12T02:51:15;102235.63;;;13.73;100.00
64844;BME280;51310;52.198;5.422;2022-07-12T02:53:41;102235.03;;;13.76;100.00
64844;BME280;51310;52.198;5.422;2022-07-12T02:56:07;102229.69;;;13.74;100.00
64844;BME280;51310;52.198;5.422;2022-07-12T02:58:34;102227.44;;;13.78;100.00
64844;BME280;51310;52.198;5.422;2022-07-12T03:01:00;102225.84;;;13.71;100.00
64844;BME280;51310;52.198;5.422;2022-07-12T03:03:26;102225.97;;;13.64;100.00
64844;BME280;51310;52.198;5.422;2022-07-12T03:05:52;102222.47;;;13.63;100.00
64844;BME280;51310;52.198;5.422;2022-07-12T03:08:18;102217.50;;;13.49;100.00
64844;BME280;51310;52.198;5.422;2022-07-12T03:10:45;102219.41;;;13.43;100.00
64844;BME280;51310;52.198;5.422;2022-07-12T03:13:11;102216.94;;;13.36;100.00
64844;BME280;51310;52.198;5.422;2022-07-12T03:15:37;102234.19;;;13.44;100.00
64844;BME280;51310;52.198;5.422;2022-07-12T03:18:03;102228.06;;;13.43;100.00
64844;BME280;51310;52.198;5.422;2022-07-12T03:20:30;102224.44;;;13.41;100.00
64844;BME280;51310;52.198;5.422;2022-07-12T03:22:57;102225.59;;;13.36;100.00
64844;BME280;51310;52.198;5.422;2022-07-12T03:25:24;102227.59;;;13.39;100.00
64844;BME280;51310;52.198;5.422;2022-07-12T03:27:50;102222.84;;;13.34;100.00
64844;BME280;51310;52.198;5.422;2022-07-12T03:30:17;102231.84;;;13.38;100.00
64844;BME280;51310;52.198;5.422;2022-07-12T03:32:43;102231.84;;;13.38;100.00
64844;BME280;51310;52.198;5.422;2022-07-12T03:35:09;102228.00;;;13.34;100.00
64844;BME280;51310;52.198;5.422;2022-07-12T03:37:50;102225.50;;;13.43;100.00
64844;BME280;51310;52.198;5.422;2022-07-12T03:40:19;102231.84;;;13.38;100.00
64844;BME280;51310;52.198;5.422;2022-07-12T03:42:47;102230.94;;;13.38;100.00
64844;BME280;51310;52.198;5.422;2022-07-12T03:45:14;102231.13;;;13.39;100.00
64844;BME280;51310;52.198;5.422;2022-07-12T03:47:41;102239.78;;;13.40;100.00
64844;BME280;51310;52.198;5.422;2022-07-12T03:50:11;102240.69;;;13.40;100.00
64844;BME280;51310;52.198;5.422;2022-07-12T03:52:39;102239.03;;;13.41;100.00
64844;BME280;51310;52.198;5.422;2022-07-12T03:55:07;102230.34;;;13.40;100.00
64844;BME280;51310;52.198;5.422;2022-07-12T03:57:34;102241.13;;;13.36;100.00
64844;BME280;51310;52.198;5.422;2022-07-12T04:00:00;102241.13;;;13.36;100.00
64844;BME280;51310;52.198;5.422;2022-07-12T04:02:26;102238.59;;;13.45;100.00
64844;BME280;51310;52.198;5.422;2022-07-12T04:04:52;102241.28;;;13.38;100.00
64844;BME280;51310;52.198;5.422;2022-07-12T04:07:18;102242.19;;;13.38;100.00
64844;BME280;51310;52.198;5.422;2022-07-12T04:09:45;102246.03;;;13.42;100.00
64844;BME280;51310;52.198;5.422;2022-07-12T04:12:11;102250.78;;;13.46;100.00
64844;BME280;51310;52.198;5.422;2022-07-12T04:14:37;102247.44;;;13.47;100.00
64844;BME280;51310;52.198;5.422;2022-07-12T04:17:04;102245.34;;;13.51;100.00
64844;BME280;51310;52.198;5.422;2022-07-12T04:19:32;102238.06;;;13.56;100.00
64844;BME280;51310;52.198;5.422;2022-07-12T04:21:59;102238.28;;;13.42;100.00
64844;BME280;51310;52.198;5.422;2022-07-12T04:24:26;102233.78;;;13.48;100.00
64844;BME280;51310;52.198;5.422;2022-07-12T04:26:52;102234.41;;;13.54;100.00
64844;BME280;51310;52.198;5.422;2022-07-12T04:29:19;102234.56;;;13.56;100.00
64844;BME280;51310;52.198;5.422;2022-07-12T04:31:45;102236.63;;;13.67;100.00
64844;BME280;51310;52.198;5.422;2022-07-12T04:34:11;102231.63;;;13.68;100.00
64844;BME280;51310;52.198;5.422;2022-07-12T04:36:37;102237.22;;;13.80;100.00
64844;BME280;51310;52.198;5.422;2022-07-12T04:39:04;102234.16;;;13.84;100.00
64844;BME280;51310;52.198;5.422;2022-07-12T04:41:30;102239.84;;;13.89;100.00
64844;BME280;51310;52.198;5.422;2022-07-12T04:43:56;102245.41;;;14.01;100.00
64844;BME280;51310;52.198;5.422;2022-07-12T04:46:21;102238.75;;;14.11;100.00
64844;BME280;51310;52.198;5.422;2022-07-12T04:48:47;102246.09;;;14.15;100.00
64844;BME280;51310;52.198;5.422;2022-07-12T04:51:13;102242.81;;;14.34;100.00
64844;BME280;51310;52.198;5.422;2022-07-12T04:53:42;102249.34;;;14.55;100.00
64844;BME280;51310;52.198;5.422;2022-07-12T04:56:08;102248.78;;;14.66;100.00
64844;BME280;51310;52.198;5.422;2022-07-12T04:58:33;102249.19;;;15.04;100.00
64844;BME280;51310;52.198;5.422;2022-07-12T05:00:59;102249.09;;;15.72;100.00
64844;BME280;51310;52.198;5.422;2022-07-12T05:03:25;102248.25;;;16.08;100.00
64844;BME280;51310;52.198;5.422;2022-07-12T05:05:54;102255.00;;;15.97;100.00
64844;BME280;51310;52.198;5.422;2022-07-12T05:08:20;102254.22;;;16.07;100.00
64844;BME280;51310;52.198;5.422;2022-07-12T05:10:46;102264.19;;;16.03;100.00
64844;BME280;51310;52.198;5.422;2022-07-12T05:13:12;102261.28;;;15.65;100.00
64844;BME280;51310;52.198;5.422;2022-07-12T05:15:38;102270.44;;;16.05;100.00
64844;BME280;51310;52.198;5.422;2022-07-12T05:18:03;102273.72;;;16.30;100.00
64844;BME280;51310;52.198;5.422;2022-07-12T05:20:30;102267.63;;;17.02;100.00
64844;BME280;51310;52.198;5.422;2022-07-12T05:22:56;102271.22;;;17.32;97.40
64844;BME280;51310;52.198;5.422;2022-07-12T05:25:21;102276.69;;;17.73;95.38
64844;BME280;51310;52.198;5.422;2022-07-12T05:27:47;102281.78;;;17.90;94.41
64844;BME280;51310;52.198;5.422;2022-07-12T05:30:13;102288.31;;;18.24;93.02
64844;BME280;51310;52.198;5.422;2022-07-12T05:32:39;102289.88;;;18.22;91.63
64844;BME280;51310;52.198;5.422;2022-07-12T05:35:06;102282.84;;;18.61;91.00
64844;BME280;51310;52.198;5.422;2022-07-12T05:37:33;102290.84;;;18.83;89.04
64844;BME280;51310;52.198;5.422;2022-07-12T05:39:58;102290.63;;;19.11;87.80
64844;BME280;51310;52.198;5.422;2022-07-12T05:42:24;102289.31;;;19.26;86.67
64844;BME280;51310;52.198;5.422;2022-07-12T05:44:50;102287.50;;;19.25;85.70
64844;BME280;51310;52.198;5.422;2022-07-12T05:47:16;102292.34;;;19.20;87.78
64844;BME280;51310;52.198;5.422;2022-07-12T05:49:42;102292.47;;;19.12;87.34
64844;BME280;51310;52.198;5.422;2022-07-12T05:52:07;102287.66;;;19.16;87.87
64844;BME280;51310;52.198;5.422;2022-07-12T05:54:52;102288.41;;;19.25;87.46
64844;BME280;51310;52.198;5.422;2022-07-12T05:57:18;102287.47;;;19.45;86.73
64844;BME280;51310;52.198;5.422;2022-07-12T05:59:45;102285.25;;;19.81;85.37
64844;BME280;51310;52.198;5.422;2022-07-12T06:02:10;102291.13;;;19.68;86.11
64844;BME280;51310;52.198;5.422;2022-07-12T06:04:36;102292.13;;;19.91;85.36
64844;BME280;51310;52.198;5.422;2022-07-12T06:07:03;102297.94;;;19.76;85.34
64844;BME280;51310;52.198;5.422;2022-07-12T06:09:29;102294.25;;;19.64;85.80
64844;BME280;51310;52.198;5.422;2022-07-12T06:11:54;102283.13;;;19.66;85.29
64844;BME280;51310;52.198;5.422;2022-07-12T06:14:20;102283.44;;;19.59;86.12
64844;BME280;51310;52.198;5.422;2022-07-12T06:16:46;102280.69;;;19.47;86.63
64844;BME280;51310;52.198;5.422;2022-07-12T06:19:13;102285.78;;;19.77;84.66
64844;BME280;51310;52.198;5.422;2022-07-12T06:21:38;102285.25;;;19.71;84.63
64844;BME280;51310;52.198;5.422;2022-07-12T06:24:05;102291.13;;;19.68;84.54
64844;BME280;51310;52.198;5.422;2022-07-12T06:26:31;102285.25;;;20.13;84.13
64844;BME280;51310;52.198;5.422;2022-07-12T06:28:56;102283.34;;;20.33;82.00
64844;BME280;51310;52.198;5.422;2022-07-12T06:31:23;102286.78;;;20.21;82.26
64844;BME280;51310;52.198;5.422;2022-07-12T06:33:50;102286.53;;;20.18;82.47
64844;BME280;51310;52.198;5.422;2022-07-12T06:36:16;102286.91;;;20.45;82.33
64844;BME280;51310;52.198;5.422;2022-07-12T06:38:41;102291.59;;;20.59;81.55
64844;BME280;51310;52.198;5.422;2022-07-12T06:41:07;102286.81;;;20.87;79.67
64844;BME280;51310;52.198;5.422;2022-07-12T06:43:33;102290.19;;;20.75;79.92
64844;BME280;51310;52.198;5.422;2022-07-12T06:45:59;102291.72;;;20.83;80.76
64844;BME280;51310;52.198;5.422;2022-07-12T06:48:25;102290.56;;;20.57;80.85
64844;BME280;51310;52.198;5.422;2022-07-12T06:50:51;102292.22;;;20.57;80.50
64844;BME280;51310;52.198;5.422;2022-07-12T06:53:17;102291.44;;;20.36;82.59
64844;BME280;51310;52.198;5.422;2022-07-12T06:55:43;102296.47;;;20.22;83.42
64844;BME280;51310;52.198;5.422;2022-07-12T06:58:09;102286.06;;;20.34;83.02
64844;BME280;51310;52.198;5.422;2022-07-12T07:00:35;102299.47;;;20.49;82.33
64844;BME280;51310;52.198;5.422;2022-07-12T07:03:01;102298.00;;;20.53;81.84
64844;BME280;51310;52.198;5.422;2022-07-12T07:05:27;102302.63;;;20.45;81.91
64844;BME280;51310;52.198;5.422;2022-07-12T07:07:53;102293.00;;;20.34;81.80
64844;BME280;51310;52.198;5.422;2022-07-12T07:10:20;102296.47;;;20.22;82.08
64844;BME280;51310;52.198;5.422;2022-07-12T07:12:46;102292.66;;;20.19;82.28
64844;BME280;51310;52.198;5.422;2022-07-12T07:15:11;102311.31;;;19.91;82.22
64844;BME280;51310;52.198;5.422;2022-07-12T07:17:41;102306.22;;;20.03;82.10
64844;BME280;51310;52.198;5.422;2022-07-12T07:20:10;102296.13;;;20.07;82.26
64844;BME280;51310;52.198;5.422;2022-07-12T07:22:36;102300.34;;;20.27;82.84
64844;BME280;51310;52.198;5.422;2022-07-12T07:25:04;102296.16;;;20.29;82.36
64844;BME280;51310;52.198;5.422;2022-07-12T07:27:30;102301.72;;;20.44;83.45
64844;BME280;51310;52.198;5.422;2022-07-12T07:29:56;102291.19;;;20.55;82.10
64844;BME280;51310;52.198;5.422;2022-07-12T07:32:40;102291.28;;;20.66;81.71
64844;BME280;51310;52.198;5.422;2022-07-12T07:35:07;102294.63;;;21.09;80.57
64844;BME280;51310;52.198;5.422;2022-07-12T07:37:33;102289.59;;;21.35;79.02
64844;BME280;51310;52.198;5.422;2022-07-12T07:40:00;102291.00;;;21.41;77.88
64844;BME280;51310;52.198;5.422;2022-07-12T07:42:26;102289.03;;;21.39;77.45
64844;BME280;51310;52.198;5.422;2022-07-12T07:44:51;102287.41;;;21.29;77.66
64844;BME280;51310;52.198;5.422;2022-07-12T07:47:17;102292.22;;;21.35;78.38
64844;BME280;51310;52.198;5.422;2022-07-12T07:49:43;102291.91;;;21.42;77.60
64844;BME280;51310;52.198;5.422;2022-07-12T07:52:09;102282.94;;;21.50;77.97
64844;BME280;51310;52.198;5.422;2022-07-12T07:54:35;102294.34;;;21.74;77.73
64844;BME280;51310;52.198;5.422;2022-07-12T07:57:01;102284.53;;;21.83;74.97
64844;BME280;51310;52.198;5.422;2022-07-12T07:59:26;102288.31;;;21.99;74.41
64844;BME280;51310;52.198;5.422;2022-07-12T08:01:52;102283.28;;;22.02;74.34
64844;BME280;51310;52.198;5.422;2022-07-12T08:04:20;102284.63;;;22.20;73.88
64844;BME280;51310;52.198;5.422;2022-07-12T08:06:48;102287.47;;;22.35;72.56
64844;BME280;51310;52.198;5.422;2022-07-12T08:09:15;102293.09;;;21.92;72.47
64844;BME280;51310;52.198;5.422;2022-07-12T08:11:41;102298.41;;;22.18;72.58
64844;BME280;51310;52.198;5.422;2022-07-12T08:14:08;102295.25;;;22.34;72.50
64844;BME280;51310;52.198;5.422;2022-07-12T08:16:35;102292.88;;;22.25;72.77
64844;BME280;51310;52.198;5.422;2022-07-12T08:19:04;102294.56;;;22.24;72.99
64844;BME280;51310;52.198;5.422;2022-07-12T08:21:30;102305.25;;;22.16;73.04
64844;BME280;51310;52.198;5.422;2022-07-12T08:23:56;102295.81;;;22.06;74.07
64844;BME280;51310;52.198;5.422;2022-07-12T08:26:23;102299.66;;;22.11;74.00
64844;BME280;51310;52.198;5.422;2022-07-12T08:28:48;102302.88;;;22.19;73.40
64844;BME280;51310;52.198;5.422;2022-07-12T08:31:14;102300.38;;;22.32;73.71
64844;BME280;51310;52.198;5.422;2022-07-12T08:33:41;102298.84;;;22.47;73.14
64844;BME280;51310;52.198;5.422;2022-07-12T08:36:08;102298.72;;;22.46;71.71
64844;BME280;51310;52.198;5.422;2022-07-12T08:38:35;102301.59;;;22.49;71.50
64844;BME280;51310;52.198;5.422;2022-07-12T08:41:06;102308.50;;;22.60;69.72
64844;BME280;51310;52.198;5.422;2022-07-12T08:43:36;102304.53;;;22.53;69.45
64844;BME280;51310;52.198;5.422;2022-07-12T08:46:13;102298.53;;;22.31;69.47
64844;BME280;51310;52.198;5.422;2022-07-12T08:48:42;102299.09;;;22.39;69.86
64844;BME280;51310;52.198;5.422;2022-07-12T08:51:11;102287.06;;;22.54;68.81
64844;BME280;51310;52.198;5.422;2022-07-12T08:53:39;102290.47;;;22.65;68.33
64844;BME280;51310;52.198;5.422;2022-07-12T08:56:06;102284.19;;;22.63;68.53
64844;BME280;51310;52.198;5.422;2022-07-12T08:58:33;102282.69;;;22.66;68.59
64844;BME280;51310;52.198;5.422;2022-07-12T09:00:59;102285.59;;;22.83;68.92
64844;BME280;51310;52.198;5.422;2022-07-12T09:03:25;102285.59;;;22.83;65.87
64844;BME280;51310;52.198;5.422;2022-07-12T09:05:55;102283.38;;;22.89;67.36
64844;BME280;51310;52.198;5.422;2022-07-12T09:08:30;102286.31;;;23.05;66.62
64844;BME280;51310;52.198;5.422;2022-07-12T09:11:02;102289.25;;;23.10;67.37
64844;BME280;51310;52.198;5.422;2022-07-12T09:16:23;102287.28;;;23.32;62.09
64844;BME280;51310;52.198;5.422;2022-07-12T09:18:51;102279.81;;;23.39;63.18
64844;BME280;51310;52.198;5.422;2022-07-12T09:21:37;102279.63;;;23.36;63.89
64844;BME280;51310;52.198;5.422;2022-07-12T09:24:03;102286.69;;;23.37;64.17
64844;BME280;51310;52.198;5.422;2022-07-12T09:26:31;102285.06;;;23.39;62.74
64844;BME280;51310;52.198;5.422;2022-07-12T09:29:09;102290.34;;;23.52;62.96
64844;BME280;51310;52.198;5.422;2022-07-12T09:31:49;102279.28;;;23.69;61.98
64844;BME280;51310;52.198;5.422;2022-07-12T09:34:35;102276.53;;;23.68;61.87
64844;BME280;51310;52.198;5.422;2022-07-12T09:37:20;102276.38;;;23.78;61.22
64844;BME280;51310;52.198;5.422;2022-07-12T09:39:47;102278.00;;;23.89;61.04
64844;BME280;51310;52.198;5.422;2022-07-12T09:42:13;102267.34;;;24.01;61.08
64844;BME280;51310;52.198;5.422;2022-07-12T09:44:41;102272.19;;;23.95;61.52
64844;BME280;51310;52.198;5.422;2022-07-12T09:47:13;102276.84;;;23.99;60.89
64844;BME280;51310;52.198;5.422;2022-07-12T09:49:44;102276.94;;;24.14;59.41
64844;BME280;51310;52.198;5.422;2022-07-12T09:52:15;102271.34;;;24.23;59.51
64844;BME280;51310;52.198;5.422;2022-07-12T09:54:50;102267.59;;;24.32;58.54
64844;BME280;51310;52.198;5.422;2022-07-12T09:57:32;102269.97;;;24.43;56.61
64844;BME280;51310;52.198;5.422;2022-07-12T10:00:01;102268.31;;;24.16;55.53
64844;BME280;51310;52.198;5.422;2022-07-12T10:02:27;102264.19;;;24.20;56.40
64844;BME280;51310;52.198;5.422;2022-07-12T10:04:54;102266.09;;;24.49;56.32
64844;BME280;51310;52.198;5.422;2022-07-12T10:07:21;102259.88;;;24.62;54.93
64844;BME280;51310;52.198;5.422;2022-07-12T10:09:51;102268.13;;;24.68;54.56
64844;BME280;51310;52.198;5.422;2022-07-12T10:12:21;102271.63;;;24.82;54.60
64844;BME280;51310;52.198;5.422;2022-07-12T10:14:57;102280.03;;;24.76;55.63
64844;BME280;51310;52.198;5.422;2022-07-12T10:17:26;102280.47;;;24.69;54.76
64844;BME280;51310;52.198;5.422;2022-07-12T10:20:18;102283.88;;;24.82;54.36
64844;BME280;51310;52.198;5.422;2022-07-12T10:22:47;102279.13;;;24.76;55.85
64844;BME280;51310;52.198;5.422;2022-07-12T10:27:51;102279.94;;;24.75;55.36
64844;BME280;51310;52.198;5.422;2022-07-12T10:30:21;102278.28;;;25.05;55.01
64844;BME280;51310;52.198;5.422;2022-07-12T10:32:51;102280.59;;;25.29;53.89
64844;BME280;51310;52.198;5.422;2022-07-12T10:35:25;102279.97;;;25.63;53.05
64844;BME280;51310;52.198;5.422;2022-07-12T10:38:15;102280.06;;;25.34;52.99
64844;BME280;51310;52.198;5.422;2022-07-12T10:40:44;102276.53;;;25.34;53.09
64844;BME280;51310;52.198;5.422;2022-07-12T10:43:12;102276.63;;;25.21;53.79
64844;BME280;51310;52.198;5.422;2022-07-12T10:45:44;102282.75;;;25.06;54.45
64844;BME280;51310;52.198;5.422;2022-07-12T10:58:46;102273.25;;;25.53;53.14
64844;BME280;51310;52.198;5.422;2022-07-12T11:01:31;102270.22;;;25.76;52.56
64844;BME280;51310;52.198;5.422;2022-07-12T11:04:09;102266.22;;;25.83;51.70
64844;BME280;51310;52.198;5.422;2022-07-12T11:06:41;102268.81;;;25.98;52.23
64844;BME280;51310;52.198;5.422;2022-07-12T11:09:10;102272.06;;;25.92;50.21
64844;BME280;51310;52.198;5.422;2022-07-12T11:11:45;102275.31;;;25.73;49.97
64844;BME280;51310;52.198;5.422;2022-07-12T11:16:58;102274.03;;;25.96;51.51
64844;BME280;51310;52.198;5.422;2022-07-12T11:19:27;102268.72;;;26.11;49.63
64844;BME280;51310;52.198;5.422;2022-07-12T11:21:56;102270.81;;;26.33;49.89
64844;BME280;51310;52.198;5.422;2022-07-12T11:24:29;102279.94;;;26.24;48.54
64844;BME280;51310;52.198;5.422;2022-07-12T11:26:56;102284.09;;;26.35;46.89
64844;BME280;51310;52.198;5.422;2022-07-12T11:29:25;102270.38;;;26.26;46.74
64844;BME280;51310;52.198;5.422;2022-07-12T11:32:04;102269.66;;;25.82;47.33
64844;BME280;51310;52.198;5.422;2022-07-12T11:34:34;102266.78;;;26.09;46.63
64844;BME280;51310;52.198;5.422;2022-07-12T11:37:01;102269.53;;;26.10;48.27
64844;BME280;51310;52.198;5.422;2022-07-12T11:39:38;102264.16;;;26.09;48.22
64844;BME280;51310;52.198;5.422;2022-07-12T11:42:06;102266.28;;;26.31;47.09
64844;BME280;51310;52.198;5.422;2022-07-12T11:44:49;102262.06;;;26.34;43.93
64844;BME280;51310;52.198;5.422;2022-07-12T11:47:21;102262.88;;;26.17;45.28
64844;BME280;51310;52.198;5.422;2022-07-12T11:49:52;102263.69;;;26.16;44.70
64844;BME280;51310;52.198;5.422;2022-07-12T11:52:21;102256.94;;;26.21;45.83
64844;BME280;51310;52.198;5.422;2022-07-12T11:54:50;102249.84;;;26.20;45.58
64844;BME280;51310;52.198;5.422;2022-07-12T11:57:22;102248.81;;;26.02;46.80
64844;BME280;51310;52.198;5.422;2022-07-12T11:59:51;102250.41;;;26.14;46.61
64844;BME280;51310;52.198;5.422;2022-07-12T12:02:17;102256.44;;;26.28;45.98
64844;BME280;51310;52.198;5.422;2022-07-12T12:04:54;102256.19;;;26.07;47.39
64844;BME280;51310;52.198;5.422;2022-07-12T12:07:23;102255.72;;;26.47;46.46
64844;BME280;51310;52.198;5.422;2022-07-12T12:10:11;102255.03;;;26.35;44.80
64844;BME280;51310;52.198;5.422;2022-07-12T12:12:53;102256.34;;;26.58;44.48
64844;BME280;51310;52.198;5.422;2022-07-12T12:15:30;102257.53;;;26.63;44.04
64844;BME280;51310;52.198;5.422;2022-07-12T12:18:02;102251.16;;;26.59;43.43
64844;BME280;51310;52.198;5.422;2022-07-12T12:20:31;102248.00;;;26.67;43.68
64844;BME280;51310;52.198;5.422;2022-07-12T12:23:00;102245.97;;;26.61;45.36
64844;BME280;51310;52.198;5.422;2022-07-12T12:25:28;102242.63;;;26.49;46.02
64844;BME280;51310;52.198;5.422;2022-07-12T12:28:04;102240.88;;;26.82;44.44
64844;BME280;51310;52.198;5.422;2022-07-12T12:30:34;102249.03;;;27.03;43.45
64844;BME280;51310;52.198;5.422;2022-07-12T12:33:03;102245.31;;;27.16;43.19
64844;BME280;51310;52.198;5.422;2022-07-12T12:35:38;102247.19;;;27.53;40.66
64844;BME280;51310;52.198;5.422;2022-07-12T12:38:14;102250.16;;;27.41;42.01
64844;BME280;51310;52.198;5.422;2022-07-12T12:40:49;102243.56;;;27.51;40.27
64844;BME280;51310;52.198;5.422;2022-07-12T12:43:20;102253.50;;;27.38;39.94
64844;BME280;51310;52.198;5.422;2022-07-12T12:45:54;102237.38;;;27.32;41.41
64844;BME280;51310;52.198;5.422;2022-07-12T12:48:23;102244.41;;;27.50;39.35
64844;BME280;51310;52.198;5.422;2022-07-12T12:50:53;102235.94;;;27.39;42.01
64844;BME280;51310;52.198;5.422;2022-07-12T12:53:23;102218.84;;;27.68;41.72
64844;BME280;51310;52.198;5.422;2022-07-12T12:55:52;102227.16;;;27.76;39.07
64844;BME280;51310;52.198;5.422;2022-07-12T12:58:22;102224.13;;;27.68;39.27
64844;BME280;51310;52.198;5.422;2022-07-12T13:00:51;102220.53;;;27.84;39.30
64844;BME280;51310;52.198;5.422;2022-07-12T13:03:21;102219.63;;;27.66;40.81
64844;BME280;51310;52.198;5.422;2022-07-12T13:05:49;102221.56;;;27.70;42.18
64844;BME280;51310;52.198;5.422;2022-07-12T13:08:16;102216.81;;;27.98;42.15
64844;BME280;51310;52.198;5.422;2022-07-12T13:10:44;102217.19;;;28.06;40.46